sensor_id;sensor_type;location;lat;lon;timestamp;P1;durP1;ratioP1;P2;durP2;ratioP2
50393;SDS011;36308;46.312;25.288;2024-02-26T00:01:35;14.60;;;8.25;;
50393;SDS011;36308;46.312;25.288;2024-02-26T00:04:01;12.95;;;6.80;;
50393;SDS011;36308;46.312;25.288;2024-02-26T00:06:28;11.60;;;7.10;;
50393;SDS011;36308;46.312;25.288;2024-02-26T00:08:54;15.63;;;8.00;;
50393;SDS011;36308;46.312;25.288;2024-02-26T00:11:19;16.75;;;9.27;;
50393;SDS011;36308;46.312;25.288;2024-02-26T00:13:45;20.58;;;10.10;;
50393;SDS011;36308;46.312;25.288;2024-02-26T00:16:10;17.23;;;9.25;;
50393;SDS011;36308;46.312;25.288;2024-02-26T00:18:36;14.82;;;7.40;;
50393;SDS011;36308;46.312;25.288;2024-02-26T00:21:02;19.73;;;8.32;;
50393;SDS011;36308;46.312;25.288;2024-02-26T00:23:27;17.67;;;10.25;;
50393;SDS011;36308;46.312;25.288;2024-02-26T00:25:53;19.00;;;10.23;;
50393;SDS011;36308;46.312;25.288;2024-02-26T00:28:20;20.02;;;9.77;;
50393;SDS011;36308;46.312;25.288;2024-02-26T00:30:46;23.20;;;11.32;;
50393;SDS011;36308;46.312;25.288;2024-02-26T00:33:12;21.65;;;11.25;;
50393;SDS011;36308;46.312;25.288;2024-02-26T00:35:37;20.83;;;11.10;;
50393;SDS011;36308;46.312;25.288;2024-02-26T00:38:03;18.80;;;10.07;;
50393;SDS011;36308;46.312;25.288;2024-02-26T00:40:29;15.82;;;8.65;;
50393;SDS011;36308;46.312;25.288;2024-02-26T00:42:55;12.10;;;6.70;;
50393;SDS011;36308;46.312;25.288;2024-02-26T00:45:20;11.57;;;6.20;;
50393;SDS011;36308;46.312;25.288;2024-02-26T00:47:46;11.38;;;6.07;;
50393;SDS011;36308;46.312;25.288;2024-02-26T00:50:13;9.68;;;5.50;;
50393;SDS011;36308;46.312;25.288;2024-02-26T00:52:38;9.35;;;4.68;;
50393;SDS011;36308;46.312;25.288;2024-02-26T00:55:04;9.48;;;4.90;;
50393;SDS011;36308;46.312;25.288;2024-02-26T00:57:30;11.25;;;5.72;;
50393;SDS011;36308;46.312;25.288;2024-02-26T00:59:55;14.35;;;7.80;;
50393;SDS011;36308;46.312;25.288;2024-02-26T01:02:22;20.75;;;10.05;;
50393;SDS011;36308;46.312;25.288;2024-02-26T01:04:48;19.67;;;10.52;;
50393;SDS011;36308;46.312;25.288;2024-02-26T01:07:13;16.98;;;9.48;;
50393;SDS011;36308;46.312;25.288;2024-02-26T01:09:39;17.20;;;9.45;;
50393;SDS011;36308;46.312;25.288;2024-02-26T01:12:04;19.02;;;9.35;;
50393;SDS011;36308;46.312;25.288;2024-02-26T01:14:30;14.43;;;7.57;;
50393;SDS011;36308;46.312;25.288;2024-02-26T01:16:56;14.60;;;7.78;;
50393;SDS011;36308;46.312;25.288;2024-02-26T01:19:21;11.30;;;6.35;;
50393;SDS011;36308;46.312;25.288;2024-02-26T01:21:47;11.45;;;5.55;;
50393;SDS011;36308;46.312;25.288;2024-02-26T01:24:12;9.98;;;6.05;;
50393;SDS011;36308;46.312;25.288;2024-02-26T01:26:38;12.45;;;6.60;;
50393;SDS011;36308;46.312;25.288;2024-02-26T01:29:04;13.00;;;6.78;;
50393;SDS011;36308;46.312;25.288;2024-02-26T01:31:29;14.65;;;8.02;;
50393;SDS011;36308;46.312;25.288;2024-02-26T01:33:55;19.52;;;11.60;;
50393;SDS011;36308;46.312;25.288;2024-02-26T01:36:20;18.83;;;9.90;;
50393;SDS011;36308;46.312;25.288;2024-02-26T01:38:46;14.70;;;8.65;;
50393;SDS011;36308;46.312;25.288;2024-02-26T01:41:13;19.23;;;9.43;;
50393;SDS011;36308;46.312;25.288;2024-02-26T01:43:39;27.23;;;10.65;;
50393;SDS011;36308;46.312;25.288;2024-02-26T01:46:04;22.33;;;9.85;;
50393;SDS011;36308;46.312;25.288;2024-02-26T01:48:31;21.30;;;9.43;;
50393;SDS011;36308;46.312;25.288;2024-02-26T01:50:56;15.52;;;8.90;;
50393;SDS011;36308;46.312;25.288;2024-02-26T01:53:22;19.67;;;9.32;;
50393;SDS011;36308;46.312;25.288;2024-02-26T01:55:48;19.05;;;9.45;;
50393;SDS011;36308;46.312;25.288;2024-02-26T01:58:14;18.92;;;9.43;;
50393;SDS011;36308;46.312;25.288;2024-02-26T02:00:40;18.67;;;9.93;;
50393;SDS011;36308;46.312;25.288;2024-02-26T02:03:06;17.67;;;8.93;;
50393;SDS011;36308;46.312;25.288;2024-02-26T02:05:31;14.60;;;8.48;;
50393;SDS011;36308;46.312;25.288;2024-02-26T02:07:58;20.08;;;10.00;;
50393;SDS011;36308;46.312;25.288;2024-02-26T02:10:24;15.88;;;8.18;;
50393;SDS011;36308;46.312;25.288;2024-02-26T02:12:51;15.95;;;8.77;;
50393;SDS011;36308;46.312;25.288;2024-02-26T02:15:17;13.38;;;8.57;;
50393;SDS011;36308;46.312;25.288;2024-02-26T02:17:43;17.08;;;9.00;;
50393;SDS011;36308;46.312;25.288;2024-02-26T02:20:09;13.50;;;7.32;;
50393;SDS011;36308;46.312;25.288;2024-02-26T02:22:40;14.10;;;6.97;;
50393;SDS011;36308;46.312;25.288;2024-02-26T02:25:05;12.52;;;7.05;;
50393;SDS011;36308;46.312;25.288;2024-02-26T02:27:31;11.35;;;6.70;;
50393;SDS011;36308;46.312;25.288;2024-02-26T02:29:57;9.68;;;5.65;;
50393;SDS011;36308;46.312;25.288;2024-02-26T02:32:22;8.77;;;5.10;;
50393;SDS011;36308;46.312;25.288;2024-02-26T02:34:50;7.72;;;4.80;;
50393;SDS011;36308;46.312;25.288;2024-02-26T02:37:15;10.45;;;6.05;;
50393;SDS011;36308;46.312;25.288;2024-02-26T02:39:41;9.75;;;6.03;;
50393;SDS011;36308;46.312;25.288;2024-02-26T02:42:08;13.10;;;7.00;;
50393;SDS011;36308;46.312;25.288;2024-02-26T02:44:34;14.57;;;7.07;;
50393;SDS011;36308;46.312;25.288;2024-02-26T02:46:59;12.77;;;6.72;;
50393;SDS011;36308;46.312;25.288;2024-02-26T02:49:25;12.40;;;6.10;;
50393;SDS011;36308;46.312;25.288;2024-02-26T02:51:50;11.15;;;5.82;;
50393;SDS011;36308;46.312;25.288;2024-02-26T02:54:15;13.27;;;6.15;;
50393;SDS011;36308;46.312;25.288;2024-02-26T02:56:41;13.30;;;6.47;;
50393;SDS011;36308;46.312;25.288;2024-02-26T02:59:06;12.07;;;5.80;;
50393;SDS011;36308;46.312;25.288;2024-02-26T03:01:32;10.88;;;6.20;;
50393;SDS011;36308;46.312;25.288;2024-02-26T03:03:57;9.93;;;5.32;;
50393;SDS011;36308;46.312;25.288;2024-02-26T03:06:23;9.25;;;5.13;;
50393;SDS011;36308;46.312;25.288;2024-02-26T03:08:51;14.18;;;8.05;;
50393;SDS011;36308;46.312;25.288;2024-02-26T03:11:17;13.98;;;8.05;;
50393;SDS011;36308;46.312;25.288;2024-02-26T03:13:42;18.90;;;9.55;;
50393;SDS011;36308;46.312;25.288;2024-02-26T03:16:08;15.68;;;9.00;;
50393;SDS011;36308;46.312;25.288;2024-02-26T03:18:34;14.23;;;8.60;;
50393;SDS011;36308;46.312;25.288;2024-02-26T03:20:59;12.50;;;6.85;;
50393;SDS011;36308;46.312;25.288;2024-02-26T03:23:25;13.18;;;6.57;;
50393;SDS011;36308;46.312;25.288;2024-02-26T03:25:50;10.77;;;6.43;;
50393;SDS011;36308;46.312;25.288;2024-02-26T03:28:16;12.52;;;6.07;;
50393;SDS011;36308;46.312;25.288;2024-02-26T03:30:41;10.32;;;5.50;;
50393;SDS011;36308;46.312;25.288;2024-02-26T03:33:07;7.90;;;5.40;;
50393;SDS011;36308;46.312;25.288;2024-02-26T03:35:32;7.60;;;4.82;;
50393;SDS011;36308;46.312;25.288;2024-02-26T03:37:58;7.10;;;4.25;;
50393;SDS011;36308;46.312;25.288;2024-02-26T03:40:23;9.48;;;4.38;;
50393;SDS011;36308;46.312;25.288;2024-02-26T03:42:49;10.93;;;6.25;;
50393;SDS011;36308;46.312;25.288;2024-02-26T03:45:15;12.82;;;7.80;;
50393;SDS011;36308;46.312;25.288;2024-02-26T03:47:41;14.57;;;9.95;;
50393;SDS011;36308;46.312;25.288;2024-02-26T03:50:06;11.65;;;6.95;;
50393;SDS011;36308;46.312;25.288;2024-02-26T03:52:33;10.30;;;6.60;;
50393;SDS011;36308;46.312;25.288;2024-02-26T03:54:59;11.45;;;6.82;;
50393;SDS011;36308;46.312;25.288;2024-02-26T03:57:24;10.15;;;5.88;;
50393;SDS011;36308;46.312;25.288;2024-02-26T03:59:50;15.32;;;11.52;;
50393;SDS011;36308;46.312;25.288;2024-02-26T04:02:16;16.73;;;14.15;;
50393;SDS011;36308;46.312;25.288;2024-02-26T04:04:41;15.40;;;12.25;;
50393;SDS011;36308;46.312;25.288;2024-02-26T04:07:07;14.30;;;9.23;;
50393;SDS011;36308;46.312;25.288;2024-02-26T04:09:33;18.60;;;12.48;;
50393;SDS011;36308;46.312;25.288;2024-02-26T04:11:58;13.15;;;9.38;;
50393;SDS011;36308;46.312;25.288;2024-02-26T04:14:24;11.55;;;8.02;;
50393;SDS011;36308;46.312;25.288;2024-02-26T04:16:49;11.40;;;8.10;;
50393;SDS011;36308;46.312;25.288;2024-02-26T04:19:17;13.52;;;8.77;;
50393;SDS011;36308;46.312;25.288;2024-02-26T04:21:43;13.85;;;9.88;;
50393;SDS011;36308;46.312;25.288;2024-02-26T04:24:08;14.90;;;11.15;;
50393;SDS011;36308;46.312;25.288;2024-02-26T04:26:34;13.55;;;9.30;;
50393;SDS011;36308;46.312;25.288;2024-02-26T04:28:59;14.02;;;9.57;;
50393;SDS011;36308;46.312;25.288;2024-02-26T04:31:25;18.58;;;13.70;;
50393;SDS011;36308;46.312;25.288;2024-02-26T04:33:54;18.85;;;12.05;;
50393;SDS011;36308;46.312;25.288;2024-02-26T04:36:19;15.98;;;10.18;;
50393;SDS011;36308;46.312;25.288;2024-02-26T04:38:45;13.70;;;9.63;;
50393;SDS011;36308;46.312;25.288;2024-02-26T04:41:10;16.33;;;11.00;;
50393;SDS011;36308;46.312;25.288;2024-02-26T04:43:36;15.95;;;10.48;;
50393;SDS011;36308;46.312;25.288;2024-02-26T04:46:09;17.13;;;11.40;;
50393;SDS011;36308;46.312;25.288;2024-02-26T04:48:35;18.50;;;12.55;;
50393;SDS011;36308;46.312;25.288;2024-02-26T04:51:02;16.80;;;10.85;;
50393;SDS011;36308;46.312;25.288;2024-02-26T04:53:28;19.55;;;11.57;;
50393;SDS011;36308;46.312;25.288;2024-02-26T04:55:54;15.80;;;11.10;;
50393;SDS011;36308;46.312;25.288;2024-02-26T04:58:19;16.10;;;11.23;;
50393;SDS011;36308;46.312;25.288;2024-02-26T05:00:45;15.50;;;9.68;;
50393;SDS011;36308;46.312;25.288;2024-02-26T05:03:10;15.73;;;9.70;;
50393;SDS011;36308;46.312;25.288;2024-02-26T05:05:40;18.27;;;9.73;;
50393;SDS011;36308;46.312;25.288;2024-02-26T05:08:07;19.02;;;11.13;;
50393;SDS011;36308;46.312;25.288;2024-02-26T05:10:33;18.67;;;10.77;;
50393;SDS011;36308;46.312;25.288;2024-02-26T05:12:59;18.75;;;11.90;;
50393;SDS011;36308;46.312;25.288;2024-02-26T05:15:25;49.08;;;27.60;;
50393;SDS011;36308;46.312;25.288;2024-02-26T05:17:50;136.50;;;73.50;;
50393;SDS011;36308;46.312;25.288;2024-02-26T05:20:16;74.15;;;43.28;;
50393;SDS011;36308;46.312;25.288;2024-02-26T05:22:42;53.47;;;32.65;;
50393;SDS011;36308;46.312;25.288;2024-02-26T05:25:07;43.10;;;25.60;;
50393;SDS011;36308;46.312;25.288;2024-02-26T05:27:33;83.22;;;49.45;;
50393;SDS011;36308;46.312;25.288;2024-02-26T05:29:58;97.45;;;57.90;;
50393;SDS011;36308;46.312;25.288;2024-02-26T05:32:24;90.93;;;55.42;;
50393;SDS011;36308;46.312;25.288;2024-02-26T05:34:49;63.13;;;40.30;;
50393;SDS011;36308;46.312;25.288;2024-02-26T05:37:15;59.42;;;39.85;;
50393;SDS011;36308;46.312;25.288;2024-02-26T05:39:40;62.95;;;41.10;;
50393;SDS011;36308;46.312;25.288;2024-02-26T05:42:06;55.33;;;35.63;;
50393;SDS011;36308;46.312;25.288;2024-02-26T05:44:34;54.47;;;32.95;;
50393;SDS011;36308;46.312;25.288;2024-02-26T05:46:59;56.10;;;34.97;;
50393;SDS011;36308;46.312;25.288;2024-02-26T05:49:25;53.55;;;34.00;;
50393;SDS011;36308;46.312;25.288;2024-02-26T05:51:50;59.22;;;33.72;;
50393;SDS011;36308;46.312;25.288;2024-02-26T05:54:15;46.85;;;30.17;;
50393;SDS011;36308;46.312;25.288;2024-02-26T05:56:42;45.28;;;27.25;;
50393;SDS011;36308;46.312;25.288;2024-02-26T05:59:08;39.35;;;25.58;;
50393;SDS011;36308;46.312;25.288;2024-02-26T06:01:33;34.17;;;22.13;;
50393;SDS011;36308;46.312;25.288;2024-02-26T06:03:59;32.28;;;21.50;;
50393;SDS011;36308;46.312;25.288;2024-02-26T06:06:24;49.72;;;29.42;;
50393;SDS011;36308;46.312;25.288;2024-02-26T06:08:50;52.92;;;32.50;;
50393;SDS011;36308;46.312;25.288;2024-02-26T06:11:15;53.17;;;33.03;;
50393;SDS011;36308;46.312;25.288;2024-02-26T06:13:41;43.47;;;24.02;;
50393;SDS011;36308;46.312;25.288;2024-02-26T06:16:07;41.63;;;28.17;;
50393;SDS011;36308;46.312;25.288;2024-02-26T06:18:33;42.03;;;25.38;;
50393;SDS011;36308;46.312;25.288;2024-02-26T06:20:59;35.42;;;23.20;;
50393;SDS011;36308;46.312;25.288;2024-02-26T06:23:25;39.45;;;23.55;;
50393;SDS011;36308;46.312;25.288;2024-02-26T06:25:51;44.10;;;24.75;;
50393;SDS011;36308;46.312;25.288;2024-02-26T06:28:17;70.63;;;44.05;;
50393;SDS011;36308;46.312;25.288;2024-02-26T06:30:42;73.38;;;43.20;;
50393;SDS011;36308;46.312;25.288;2024-02-26T06:33:09;66.57;;;40.97;;
50393;SDS011;36308;46.312;25.288;2024-02-26T06:35:35;67.72;;;41.08;;
50393;SDS011;36308;46.312;25.288;2024-02-26T06:38:01;68.15;;;37.83;;
50393;SDS011;36308;46.312;25.288;2024-02-26T06:40:26;64.93;;;37.38;;
50393;SDS011;36308;46.312;25.288;2024-02-26T06:42:52;69.60;;;38.60;;
50393;SDS011;36308;46.312;25.288;2024-02-26T06:45:17;70.07;;;40.92;;
50393;SDS011;36308;46.312;25.288;2024-02-26T06:47:44;93.07;;;54.65;;
50393;SDS011;36308;46.312;25.288;2024-02-26T06:50:13;101.10;;;60.67;;
50393;SDS011;36308;46.312;25.288;2024-02-26T06:52:38;107.50;;;62.72;;
50393;SDS011;36308;46.312;25.288;2024-02-26T06:55:04;101.85;;;61.75;;
50393;SDS011;36308;46.312;25.288;2024-02-26T06:57:32;95.78;;;59.83;;
50393;SDS011;36308;46.312;25.288;2024-02-26T06:59:58;90.15;;;55.83;;
50393;SDS011;36308;46.312;25.288;2024-02-26T07:02:24;123.20;;;75.22;;
50393;SDS011;36308;46.312;25.288;2024-02-26T07:04:49;40.25;;;26.80;;
50393;SDS011;36308;46.312;25.288;2024-02-26T07:07:15;46.05;;;28.27;;
50393;SDS011;36308;46.312;25.288;2024-02-26T07:09:43;57.90;;;35.58;;
50393;SDS011;36308;46.312;25.288;2024-02-26T07:12:08;58.45;;;39.42;;
50393;SDS011;36308;46.312;25.288;2024-02-26T07:14:35;66.25;;;39.45;;
50393;SDS011;36308;46.312;25.288;2024-02-26T07:17:02;59.92;;;38.33;;
50393;SDS011;36308;46.312;25.288;2024-02-26T07:19:28;63.22;;;36.97;;
50393;SDS011;36308;46.312;25.288;2024-02-26T07:24:38;55.85;;;33.58;;
50393;SDS011;36308;46.312;25.288;2024-02-26T07:27:04;50.97;;;32.85;;
50393;SDS011;36308;46.312;25.288;2024-02-26T07:29:32;54.45;;;33.35;;
50393;SDS011;36308;46.312;25.288;2024-02-26T07:31:58;56.33;;;32.92;;
50393;SDS011;36308;46.312;25.288;2024-02-26T07:34:24;57.22;;;35.00;;
50393;SDS011;36308;46.312;25.288;2024-02-26T07:36:55;68.10;;;40.70;;
50393;SDS011;36308;46.312;25.288;2024-02-26T07:39:21;73.68;;;42.55;;
50393;SDS011;36308;46.312;25.288;2024-02-26T07:41:47;80.05;;;47.50;;
50393;SDS011;36308;46.312;25.288;2024-02-26T07:44:15;85.82;;;48.22;;
50393;SDS011;36308;46.312;25.288;2024-02-26T07:46:40;84.20;;;46.97;;
50393;SDS011;36308;46.312;25.288;2024-02-26T07:49:06;84.32;;;50.90;;
50393;SDS011;36308;46.312;25.288;2024-02-26T07:51:31;85.18;;;54.03;;
50393;SDS011;36308;46.312;25.288;2024-02-26T07:53:57;86.20;;;53.17;;
50393;SDS011;36308;46.312;25.288;2024-02-26T07:56:22;82.57;;;53.75;;
50393;SDS011;36308;46.312;25.288;2024-02-26T07:58:48;73.07;;;48.78;;
50393;SDS011;36308;46.312;25.288;2024-02-26T08:01:13;81.72;;;47.30;;
50393;SDS011;36308;46.312;25.288;2024-02-26T08:03:40;60.13;;;35.80;;
50393;SDS011;36308;46.312;25.288;2024-02-26T08:06:05;66.85;;;38.25;;
50393;SDS011;36308;46.312;25.288;2024-02-26T08:08:32;79.15;;;48.38;;
50393;SDS011;36308;46.312;25.288;2024-02-26T08:10:58;73.70;;;46.22;;
50393;SDS011;36308;46.312;25.288;2024-02-26T08:13:26;64.50;;;41.80;;
50393;SDS011;36308;46.312;25.288;2024-02-26T08:15:52;68.40;;;43.40;;
50393;SDS011;36308;46.312;25.288;2024-02-26T08:18:18;82.85;;;51.90;;
50393;SDS011;36308;46.312;25.288;2024-02-26T08:20:46;75.88;;;47.38;;
50393;SDS011;36308;46.312;25.288;2024-02-26T08:23:13;63.88;;;39.47;;
50393;SDS011;36308;46.312;25.288;2024-02-26T08:25:39;76.45;;;45.63;;
50393;SDS011;36308;46.312;25.288;2024-02-26T08:28:05;69.05;;;46.03;;
50393;SDS011;36308;46.312;25.288;2024-02-26T08:30:30;96.57;;;59.33;;
50393;SDS011;36308;46.312;25.288;2024-02-26T08:32:56;113.85;;;68.85;;
50393;SDS011;36308;46.312;25.288;2024-02-26T08:35:21;113.03;;;69.70;;
50393;SDS011;36308;46.312;25.288;2024-02-26T08:37:47;99.40;;;58.85;;
50393;SDS011;36308;46.312;25.288;2024-02-26T08:40:13;94.15;;;55.92;;
50393;SDS011;36308;46.312;25.288;2024-02-26T08:45:23;105.38;;;66.60;;
50393;SDS011;36308;46.312;25.288;2024-02-26T08:47:49;92.95;;;57.22;;
50393;SDS011;36308;46.312;25.288;2024-02-26T08:50:15;91.75;;;55.70;;
50393;SDS011;36308;46.312;25.288;2024-02-26T08:52:40;93.13;;;55.38;;
50393;SDS011;36308;46.312;25.288;2024-02-26T08:55:06;95.13;;;57.65;;
50393;SDS011;36308;46.312;25.288;2024-02-26T08:57:34;107.55;;;58.92;;
50393;SDS011;36308;46.312;25.288;2024-02-26T09:00:00;101.10;;;64.55;;
50393;SDS011;36308;46.312;25.288;2024-02-26T09:02:26;97.72;;;62.72;;
50393;SDS011;36308;46.312;25.288;2024-02-26T09:04:52;106.18;;;65.05;;
50393;SDS011;36308;46.312;25.288;2024-02-26T09:07:20;95.07;;;63.72;;
50393;SDS011;36308;46.312;25.288;2024-02-26T09:09:46;105.85;;;64.55;;
50393;SDS011;36308;46.312;25.288;2024-02-26T09:12:12;90.13;;;57.63;;
50393;SDS011;36308;46.312;25.288;2024-02-26T09:14:38;90.47;;;57.03;;
50393;SDS011;36308;46.312;25.288;2024-02-26T09:17:03;95.95;;;61.55;;
50393;SDS011;36308;46.312;25.288;2024-02-26T09:19:31;96.57;;;60.67;;
50393;SDS011;36308;46.312;25.288;2024-02-26T09:21:56;98.50;;;58.38;;
50393;SDS011;36308;46.312;25.288;2024-02-26T09:24:40;68.40;;;43.17;;
50393;SDS011;36308;46.312;25.288;2024-02-26T09:27:06;60.33;;;39.20;;
50393;SDS011;36308;46.312;25.288;2024-02-26T09:29:31;30.63;;;21.35;;
50393;SDS011;36308;46.312;25.288;2024-02-26T09:31:58;27.30;;;17.35;;
50393;SDS011;36308;46.312;25.288;2024-02-26T09:34:23;26.80;;;17.58;;
50393;SDS011;36308;46.312;25.288;2024-02-26T09:36:49;28.35;;;17.35;;
50393;SDS011;36308;46.312;25.288;2024-02-26T09:39:14;25.40;;;17.75;;
50393;SDS011;36308;46.312;25.288;2024-02-26T09:41:45;33.30;;;22.27;;
50393;SDS011;36308;46.312;25.288;2024-02-26T09:44:11;33.25;;;20.13;;
50393;SDS011;36308;46.312;25.288;2024-02-26T09:46:40;32.42;;;19.10;;
50393;SDS011;36308;46.312;25.288;2024-02-26T09:49:06;49.63;;;28.90;;
50393;SDS011;36308;46.312;25.288;2024-02-26T09:51:33;26.67;;;17.58;;
50393;SDS011;36308;46.312;25.288;2024-02-26T09:53:59;23.25;;;16.10;;
50393;SDS011;36308;46.312;25.288;2024-02-26T09:56:28;22.67;;;14.82;;
50393;SDS011;36308;46.312;25.288;2024-02-26T09:58:55;19.35;;;13.80;;
50393;SDS011;36308;46.312;25.288;2024-02-26T10:01:22;31.92;;;18.83;;
50393;SDS011;36308;46.312;25.288;2024-02-26T10:03:59;26.33;;;15.68;;
50393;SDS011;36308;46.312;25.288;2024-02-26T10:06:27;20.40;;;12.95;;
50393;SDS011;36308;46.312;25.288;2024-02-26T10:08:54;27.35;;;15.45;;
50393;SDS011;36308;46.312;25.288;2024-02-26T10:11:23;24.50;;;12.93;;
50393;SDS011;36308;46.312;25.288;2024-02-26T10:13:49;25.55;;;12.85;;
50393;SDS011;36308;46.312;25.288;2024-02-26T10:16:15;111.65;;;41.78;;
50393;SDS011;36308;46.312;25.288;2024-02-26T10:18:51;72.32;;;27.63;;
50393;SDS011;36308;46.312;25.288;2024-02-26T10:21:22;73.30;;;27.52;;
50393;SDS011;36308;46.312;25.288;2024-02-26T10:23:48;67.95;;;23.88;;
50393;SDS011;36308;46.312;25.288;2024-02-26T10:26:14;69.53;;;30.20;;
50393;SDS011;36308;46.312;25.288;2024-02-26T10:28:44;36.38;;;16.05;;
50393;SDS011;36308;46.312;25.288;2024-02-26T10:31:10;49.65;;;21.35;;
50393;SDS011;36308;46.312;25.288;2024-02-26T10:33:37;18.05;;;9.30;;
50393;SDS011;36308;46.312;25.288;2024-02-26T10:36:04;37.70;;;17.65;;
50393;SDS011;36308;46.312;25.288;2024-02-26T10:38:30;22.42;;;12.57;;
50393;SDS011;36308;46.312;25.288;2024-02-26T10:40:58;29.15;;;15.05;;
50393;SDS011;36308;46.312;25.288;2024-02-26T10:43:25;33.50;;;16.13;;
50393;SDS011;36308;46.312;25.288;2024-02-26T10:45:51;22.48;;;10.77;;
50393;SDS011;36308;46.312;25.288;2024-02-26T10:48:16;22.58;;;11.93;;
50393;SDS011;36308;46.312;25.288;2024-02-26T10:50:43;50.10;;;21.83;;
50393;SDS011;36308;46.312;25.288;2024-02-26T10:53:18;25.90;;;11.77;;
50393;SDS011;36308;46.312;25.288;2024-02-26T10:55:49;58.38;;;23.35;;
50393;SDS011;36308;46.312;25.288;2024-02-26T10:58:19;40.92;;;17.17;;
50393;SDS011;36308;46.312;25.288;2024-02-26T11:00:47;89.68;;;34.95;;
50393;SDS011;36308;46.312;25.288;2024-02-26T11:03:14;60.30;;;23.30;;
50393;SDS011;36308;46.312;25.288;2024-02-26T11:05:45;16.42;;;8.30;;
50393;SDS011;36308;46.312;25.288;2024-02-26T11:08:18;23.42;;;11.15;;
50393;SDS011;36308;46.312;25.288;2024-02-26T11:10:46;32.65;;;17.70;;
50393;SDS011;36308;46.312;25.288;2024-02-26T11:13:14;58.55;;;30.80;;
50393;SDS011;36308;46.312;25.288;2024-02-26T11:15:40;22.85;;;12.98;;
50393;SDS011;36308;46.312;25.288;2024-02-26T11:18:07;51.60;;;29.65;;
50393;SDS011;36308;46.312;25.288;2024-02-26T11:20:34;24.38;;;11.95;;
50393;SDS011;36308;46.312;25.288;2024-02-26T11:23:03;47.25;;;21.65;;
50393;SDS011;36308;46.312;25.288;2024-02-26T11:25:29;57.15;;;33.85;;
50393;SDS011;36308;46.312;25.288;2024-02-26T11:27:56;38.95;;;20.77;;
50393;SDS011;36308;46.312;25.288;2024-02-26T11:30:26;37.65;;;19.08;;
50393;SDS011;36308;46.312;25.288;2024-02-26T11:32:56;34.42;;;17.83;;
50393;SDS011;36308;46.312;25.288;2024-02-26T11:35:23;22.58;;;12.27;;
50393;SDS011;36308;46.312;25.288;2024-02-26T11:41:10;23.23;;;13.55;;
50393;SDS011;36308;46.312;25.288;2024-02-26T11:43:52;13.88;;;9.05;;
50393;SDS011;36308;46.312;25.288;2024-02-26T11:46:29;12.45;;;8.02;;
50393;SDS011;36308;46.312;25.288;2024-02-26T11:49:03;20.13;;;12.57;;
50393;SDS011;36308;46.312;25.288;2024-02-26T11:51:52;73.25;;;48.65;;
50393;SDS011;36308;46.312;25.288;2024-02-26T11:59:54;24.27;;;16.75;;
50393;SDS011;36308;46.312;25.288;2024-02-26T12:07:48;17.77;;;12.82;;
50393;SDS011;36308;46.312;25.288;2024-02-26T12:12:52;15.23;;;7.45;;
50393;SDS011;36308;46.312;25.288;2024-02-26T12:15:19;14.45;;;9.70;;
50393;SDS011;36308;46.312;25.288;2024-02-26T12:17:48;16.63;;;8.60;;
50393;SDS011;36308;46.312;25.288;2024-02-26T12:20:15;13.98;;;9.10;;
50393;SDS011;36308;46.312;25.288;2024-02-26T12:22:44;17.73;;;8.85;;
50393;SDS011;36308;46.312;25.288;2024-02-26T12:25:14;13.07;;;8.13;;
50393;SDS011;36308;46.312;25.288;2024-02-26T12:27:40;9.98;;;7.25;;
50393;SDS011;36308;46.312;25.288;2024-02-26T12:30:05;10.27;;;7.28;;
50393;SDS011;36308;46.312;25.288;2024-02-26T12:32:32;19.42;;;8.82;;
50393;SDS011;36308;46.312;25.288;2024-02-26T12:34:58;14.82;;;7.75;;
50393;SDS011;36308;46.312;25.288;2024-02-26T12:37:25;21.42;;;8.18;;
50393;SDS011;36308;46.312;25.288;2024-02-26T12:39:52;13.18;;;7.13;;
50393;SDS011;36308;46.312;25.288;2024-02-26T12:42:18;10.80;;;6.95;;
50393;SDS011;36308;46.312;25.288;2024-02-26T12:44:46;11.57;;;7.57;;
50393;SDS011;36308;46.312;25.288;2024-02-26T12:47:12;16.15;;;8.80;;
50393;SDS011;36308;46.312;25.288;2024-02-26T12:49:46;12.60;;;9.02;;
50393;SDS011;36308;46.312;25.288;2024-02-26T12:52:13;14.02;;;8.57;;
50393;SDS011;36308;46.312;25.288;2024-02-26T12:54:39;20.90;;;8.38;;
50393;SDS011;36308;46.312;25.288;2024-02-26T12:57:07;12.95;;;7.85;;
50393;SDS011;36308;46.312;25.288;2024-02-26T12:59:34;13.40;;;8.82;;
50393;SDS011;36308;46.312;25.288;2024-02-26T13:02:01;13.98;;;8.73;;
50393;SDS011;36308;46.312;25.288;2024-02-26T13:07:30;24.52;;;13.43;;
50393;SDS011;36308;46.312;25.288;2024-02-26T13:09:56;11.55;;;7.82;;
50393;SDS011;36308;46.312;25.288;2024-02-26T13:15:13;17.98;;;8.07;;
50393;SDS011;36308;46.312;25.288;2024-02-26T13:17:40;16.95;;;8.48;;
50393;SDS011;36308;46.312;25.288;2024-02-26T13:20:07;20.25;;;8.98;;
50393;SDS011;36308;46.312;25.288;2024-02-26T13:22:35;15.50;;;9.43;;
50393;SDS011;36308;46.312;25.288;2024-02-26T13:25:00;16.83;;;9.18;;
50393;SDS011;36308;46.312;25.288;2024-02-26T13:27:28;19.40;;;9.82;;
50393;SDS011;36308;46.312;25.288;2024-02-26T13:30:09;24.00;;;9.98;;
50393;SDS011;36308;46.312;25.288;2024-02-26T13:32:36;15.77;;;8.27;;
50393;SDS011;36308;46.312;25.288;2024-02-26T13:35:06;16.98;;;11.32;;
50393;SDS011;36308;46.312;25.288;2024-02-26T13:37:36;18.73;;;8.98;;
50393;SDS011;36308;46.312;25.288;2024-02-26T13:40:09;15.35;;;11.40;;
50393;SDS011;36308;46.312;25.288;2024-02-26T13:42:36;13.80;;;8.10;;
50393;SDS011;36308;46.312;25.288;2024-02-26T13:45:03;10.88;;;7.28;;
50393;SDS011;36308;46.312;25.288;2024-02-26T13:47:33;19.90;;;10.23;;
50393;SDS011;36308;46.312;25.288;2024-02-26T13:49:59;20.92;;;10.18;;
50393;SDS011;36308;46.312;25.288;2024-02-26T13:52:26;14.55;;;8.43;;
50393;SDS011;36308;46.312;25.288;2024-02-26T13:54:51;13.48;;;8.77;;
50393;SDS011;36308;46.312;25.288;2024-02-26T13:57:17;18.10;;;9.43;;
50393;SDS011;36308;46.312;25.288;2024-02-26T13:59:44;18.65;;;10.25;;
50393;SDS011;36308;46.312;25.288;2024-02-26T14:02:09;18.08;;;9.95;;
50393;SDS011;36308;46.312;25.288;2024-02-26T14:04:36;16.55;;;10.55;;
50393;SDS011;36308;46.312;25.288;2024-02-26T14:07:01;17.85;;;10.90;;
50393;SDS011;36308;46.312;25.288;2024-02-26T14:09:28;19.25;;;11.82;;
50393;SDS011;36308;46.312;25.288;2024-02-26T14:11:54;12.93;;;8.50;;
50393;SDS011;36308;46.312;25.288;2024-02-26T14:14:19;11.93;;;7.65;;
50393;SDS011;36308;46.312;25.288;2024-02-26T14:16:45;12.23;;;6.38;;
50393;SDS011;36308;46.312;25.288;2024-02-26T14:19:10;19.50;;;8.35;;
50393;SDS011;36308;46.312;25.288;2024-02-26T14:21:36;17.05;;;9.02;;
50393;SDS011;36308;46.312;25.288;2024-02-26T14:24:03;15.35;;;7.25;;
50393;SDS011;36308;46.312;25.288;2024-02-26T14:26:29;13.00;;;6.35;;
50393;SDS011;36308;46.312;25.288;2024-02-26T14:28:54;11.25;;;6.72;;
50393;SDS011;36308;46.312;25.288;2024-02-26T14:31:21;12.98;;;6.20;;
50393;SDS011;36308;46.312;25.288;2024-02-26T14:33:47;12.60;;;9.00;;
50393;SDS011;36308;46.312;25.288;2024-02-26T14:36:13;19.83;;;9.35;;
50393;SDS011;36308;46.312;25.288;2024-02-26T14:38:39;20.55;;;10.30;;